Bruno, Nebraska
Current Conditions -  °F | °C
As of 1:15 AM on Wednesday 26 Nov 2014 (Local Time) from KAHQ Reporting Station
Clear Clear  
Wind Chill: 29°   Ceiling: Unl
Heat Index: 37°   Visibility: 10mi
Dew Point: 32°   Wind: 12mph
Humidity: 84%   Direction: 300°WNW
Pressure: 29.82"   Gusts: NA
Location:  41.28°N, 96.96°W
Report Text: KAHQ 260715Z AUTO 30010KT 10SM CLR 03/00 A2982 RMK AO2 T00250001
Loading
Personal Weather Stations






























Interactive Weather Map New forecast layout! Learn more

10-Day Weather Forecast

Advertisements
Track Severe Weather on mobile